메인 페이지
METAR-TAF:

METAR-TAF

공항 :

자포리자, 우크라이나

위도: 47-52-02N, 경도: 035-18-59E, 고도: 114m

현재 날씨관측

예보는 5분 전, 16:00시(UTC)에 발표되었습니다.
남남서8kt
온도 6°C
습도 61%
기압 1012 hPa
시정 10km 이상
1500m 미만 상공 구름 및 적란운 없음

METAR: UKDE 251600Z 20004MPS CAVOK 06/M01 Q1012 R20L/090070 NOSIG

시각: 18:05 (16:05 UTC)

예보

예보는 2 시간 2분 전, 14:03시(UTC)에 발표되었습니다.
예보 대상 시간: 25일 15시부터 25일 24시까지 (UTC)
남남서12kt
시정 10km 이상
고도 2000ft 상공 구름 보통
일시적
25일 15시부터 25일 18시까지 (UTC)
서남서14kt, 순간 최대 풍속 23kt

TAF: UKDE 251403Z 2515/2524 20006MPS 9999 SCT020 TX07/2515Z TN02/2524Z TEMPO 2515/2518 24007G12MPS

4,000개 이상의 공항 관측 자료 및 예보 (METAR 및 TAF 보고).

지도상에서 검색 가능한 기상관측소가 노란 점과 빨간 점으로 표시되어 있습니다.

기상관측소 명을 보려면 표시 위로 마우스를 이동하세요.

날씨 관측과 예보를 보려면 클릭하세요.

지도 변경 : 확대하려면 엑스 표시가 있는 녹색 버튼, 축소하려면 빼기 표시가 있는 녹색 버튼, 다음 페이지의 지도를 보려면 녹색 화살표를 클릭하세요.


METAR-TAF: